createdAt,value
2023-05-05T00:14:29.089Z,7.73
2023-05-05T00:29:31.830Z,7.46
2023-05-05T00:44:40.422Z,7.40
2023-05-05T00:59:44.013Z,7.47
2023-05-05T01:14:53.054Z,7.42
2023-05-05T01:30:41.112Z,7.67
2023-05-05T01:45:45.690Z,8.07
2023-05-05T02:00:49.612Z,8.26
2023-05-05T02:15:54.608Z,8.26
2023-05-05T02:30:59.433Z,8.23
2023-05-05T02:46:02.174Z,8.25
2023-05-05T03:01:18.867Z,8.22
2023-05-05T03:16:23.561Z,8.21
2023-05-05T03:31:28.443Z,8.12
2023-05-05T03:46:31.269Z,8.14
2023-05-05T04:01:35.307Z,8.35
2023-05-05T04:16:38.179Z,8.44
2023-05-05T04:31:41.022Z,8.67
2023-05-05T04:46:43.946Z,8.80
2023-05-05T05:01:46.858Z,9.94
2023-05-05T05:16:52.427Z,13.03
2023-05-05T05:31:55.646Z,14.56
2023-05-05T05:46:58.519Z,16.28
2023-05-05T06:02:01.624Z,17.00
2023-05-05T06:17:04.619Z,17.06
2023-05-05T06:32:11.437Z,17.79
2023-05-05T06:47:14.137Z,20.06
2023-05-05T07:02:16.794Z,20.83
2023-05-05T07:17:19.491Z,20.91
2023-05-05T07:32:22.701Z,22.42
2023-05-05T07:47:25.502Z,23.43
2023-05-05T08:02:28.202Z,22.97
2023-05-05T08:17:44.597Z,23.81
2023-05-05T08:32:47.430Z,24.46
2023-05-05T08:47:50.248Z,25.76
2023-05-05T09:02:56.917Z,25.34
2023-05-05T09:18:01.664Z,24.63
2023-05-05T09:33:05.014Z,25.27
2023-05-05T09:48:08.215Z,26.09
2023-05-05T10:03:11.029Z,24.72
2023-05-05T10:18:17.255Z,24.16
2023-05-05T10:33:32.246Z,24.26
2023-05-05T10:48:46.404Z,24.36
2023-05-05T11:03:49.624Z,23.34
2023-05-05T11:18:52.256Z,22.41
2023-05-05T11:33:55.049Z,23.18
2023-05-05T11:48:57.681Z,22.56
2023-05-05T12:04:01.193Z,22.33
2023-05-05T12:19:08.560Z,22.14
2023-05-05T12:34:11.925Z,22.14
2023-05-05T12:49:15.199Z,22.36
2023-05-05T13:04:19.169Z,22.10
2023-05-05T13:19:24.914Z,21.95
2023-05-05T13:34:27.728Z,21.53
2023-05-05T13:49:30.402Z,21.41
2023-05-05T14:04:33.464Z,21.42
2023-05-05T14:19:36.413Z,21.17
2023-05-05T14:34:39.060Z,21.25
2023-05-05T14:49:41.803Z,21.29
2023-05-05T15:04:44.846Z,21.08
2023-05-05T15:19:47.627Z,20.94
2023-05-05T15:34:50.720Z,20.98
2023-05-05T15:49:53.488Z,20.76
2023-05-05T16:04:56.752Z,20.43
2023-05-05T16:19:59.539Z,20.66
2023-05-05T16:35:02.182Z,20.37
2023-05-05T16:50:05.737Z,20.04
2023-05-05T17:05:09.205Z,20.04
2023-05-05T17:20:12.653Z,19.81
2023-05-05T17:35:15.361Z,19.29
2023-05-05T17:50:21.272Z,18.80
2023-05-05T18:05:24.357Z,18.40
2023-05-05T18:20:27.619Z,18.00
2023-05-05T18:35:32.373Z,17.46
2023-05-05T18:50:37.526Z,16.91
2023-05-05T19:05:40.763Z,16.53
2023-05-05T19:20:43.735Z,16.11
2023-05-05T19:35:47.190Z,15.67
2023-05-05T19:50:50.331Z,15.21
2023-05-05T20:05:53.299Z,14.83
2023-05-05T20:20:56.388Z,14.49
2023-05-05T20:35:59.138Z,14.18
2023-05-05T20:51:06.000Z,13.90
2023-05-05T21:06:10.490Z,13.58
2023-05-05T21:21:14.848Z,13.26
2023-05-05T21:36:19.274Z,13.00
2023-05-05T21:51:25.123Z,12.90
2023-05-05T22:06:29.488Z,12.66
2023-05-05T22:21:32.899Z,12.36
2023-05-05T22:36:35.731Z,12.15
2023-05-05T22:51:39.230Z,11.98
2023-05-05T23:06:41.838Z,11.89
2023-05-05T23:21:52.828Z,11.70
2023-05-05T23:36:57.364Z,11.49
2023-05-05T23:52:00.701Z,11.41
